Monroe, LA

8:42 PM CST on December 27, 2014 (GMT -0600)
APRSWXNET Monroe LA US | Change Station
CLOSE
Current Station
Personal Weather Station
Location: Monroe, LA
Elevation: 265 ft
Nearby Weather Stations

Elev 265 ft 32.34 °N, 92.03 °W | Updated 40 minutes ago

Overcast
Overcast
59 °F
Feels Like 59 °F
N
4
Wind Variable Wind from NNW
Gusts 8.0 mph

Today
High -- | Low -- °F
--% Chance of Precip.
Yesterday
High -- | Low -- °F
Precip. -- in
7:08 AM 5:10 PM
Waxing Crescent, 42% visible
Pressure 30.07 in
Visibility 9.0 miles
Clouds Scattered Clouds 600 ft
Overcast 1200 ft
Dew Point 58 °F
Humidity 96%
Rainfall 1.61 in
Snow Depth Not available.
UV 0 out of 12
Pollen .40 out of 12
Air Quality Not available.
Flu Activity Not available.
SPECI KMLU 280216Z AUTO 36016G21KT 9SM -RA SCT006 OVC012 14/14 A3007 RMK AO2 P0002 T01440139 $

More Conditions Fewer Conditions

Pressure 30.07 in
Visibility 9.0 miles
Clouds Scattered Clouds 600 ft
Overcast 1200 ft
Dew Point 58 °F
Humidity 96%
Rainfall 1.61 in
Snow Depth Not available.
UV 0 out of 12
Pollen .40 out of 12
Air Quality Not available.
Flu Activity Not available.
SPECI KMLU 280216Z AUTO 36016G21KT 9SM -RA SCT006 OVC012 14/14 A3007 RMK AO2 P0002 T01440139 $

More Conditions Fewer Conditions

Nowcast | as of 7:54 PM CST on December 27, 2014

Scattered showers and thundershowers continue to move across the area just behind a cold front. The heaviest rain will be along and southeast of a line from Natchitoches la to Monroe la. The showers will move northeast around 35 miles an hour. Rainfall amounts will range from a trace to around one third of an inch...or isolated higher amounts.

×

10-Day Weather Forecast

Almanac

Astronomy

Dec. 27, 2014 Rise Set
Actual Time
Civil Twilight
Nautical Twilight
Astronomical Twilight
Moon
Length of Visible Light
Length of Day
Tomorrow will be .
, % of the Moon is Illuminated

Today's Extremes

State Highs State Lows

Community

WunderPhotos

Upload Photos

1,781,144 photos uploaded!

WunderBlogs® & News

Nearby

Air Quality

  Air Quality AQ Index Pollutant
Not available.

Snow Depth

Station Depth Elevation

Earthquake Activity

City Distance Mag. Time & Date
Minimum magnitude displayed is 2.5.

Coastal Water Temperatures

Place Temperature

Nearby Weather Stations